sensor_id;sensor_type;location;lat;lon;timestamp;pressure;altitude;pressure_sealevel;temperature;humidity
22653;BME280;11493;43.344;26.226;2023-07-13T00:00:48;99253.75;;;24.00;100.00
22653;BME280;11493;43.344;26.226;2023-07-13T00:03:16;99232.13;;;23.83;100.00
22653;BME280;11493;43.344;26.226;2023-07-13T00:05:44;99259.78;;;24.02;100.00
22653;BME280;11493;43.344;26.226;2023-07-13T00:08:11;99259.00;;;23.98;100.00
22653;BME280;11493;43.344;26.226;2023-07-13T00:10:40;99258.59;;;23.92;100.00
22653;BME280;11493;43.344;26.226;2023-07-13T00:13:08;99258.22;;;23.87;100.00
22653;BME280;11493;43.344;26.226;2023-07-13T00:15:36;99254.59;;;23.90;100.00
22653;BME280;11493;43.344;26.226;2023-07-13T00:18:03;99254.19;;;23.91;100.00
22653;BME280;11493;43.344;26.226;2023-07-13T00:20:30;99255.41;;;23.90;100.00
22653;BME280;11493;43.344;26.226;2023-07-13T00:22:57;99251.78;;;23.90;100.00
22653;BME280;11493;43.344;26.226;2023-07-13T00:25:24;99255.41;;;23.87;100.00
22653;BME280;11493;43.344;26.226;2023-07-13T00:27:55;99256.22;;;23.87;100.00
22653;BME280;11493;43.344;26.226;2023-07-13T00:30:22;99244.59;;;23.82;100.00
22653;BME280;11493;43.344;26.226;2023-07-13T00:32:50;99239.78;;;23.79;100.00
22653;BME280;11493;43.344;26.226;2023-07-13T00:35:34;99244.19;;;23.80;100.00
22653;BME280;11493;43.344;26.226;2023-07-13T00:38:01;99238.56;;;23.80;100.00
22653;BME280;11493;43.344;26.226;2023-07-13T00:40:28;99241.38;;;23.80;100.00
22653;BME280;11493;43.344;26.226;2023-07-13T00:42:58;99233.00;;;23.76;100.00
22653;BME280;11493;43.344;26.226;2023-07-13T00:47:52;99227.41;;;23.62;100.00
22653;BME280;11493;43.344;26.226;2023-07-13T00:50:21;99223.38;;;23.52;100.00
22653;BME280;11493;43.344;26.226;2023-07-13T00:52:53;99228.22;;;23.45;100.00
22653;BME280;11493;43.344;26.226;2023-07-13T00:55:22;99221.81;;;23.37;100.00
22653;BME280;11493;43.344;26.226;2023-07-13T00:57:49;99229.84;;;23.32;100.00
22653;BME280;11493;43.344;26.226;2023-07-13T01:00:16;99230.63;;;23.25;100.00
22653;BME280;11493;43.344;26.226;2023-07-13T01:02:45;99227.84;;;23.11;100.00
22653;BME280;11493;43.344;26.226;2023-07-13T01:05:16;99223.81;;;23.05;100.00
22653;BME280;11493;43.344;26.226;2023-07-13T01:07:44;99219.44;;;23.00;100.00
22653;BME280;11493;43.344;26.226;2023-07-13T01:10:12;99219.44;;;23.00;100.00
22653;BME280;11493;43.344;26.226;2023-07-13T01:12:40;99230.66;;;23.00;100.00
22653;BME280;11493;43.344;26.226;2023-07-13T01:15:36;99213.84;;;22.97;100.00
22653;BME280;11493;43.344;26.226;2023-07-13T01:18:07;99218.66;;;22.96;100.00
22653;BME280;11493;43.344;26.226;2023-07-13T01:20:35;99221.84;;;22.91;100.00
22653;BME280;11493;43.344;26.226;2023-07-13T01:23:06;99221.44;;;22.85;100.00
22653;BME280;11493;43.344;26.226;2023-07-13T01:25:34;99227.84;;;22.82;100.00
22653;BME280;11493;43.344;26.226;2023-07-13T01:28:04;99233.06;;;22.80;100.00
22653;BME280;11493;43.344;26.226;2023-07-13T01:30:31;99212.97;;;22.71;100.00
22653;BME280;11493;43.344;26.226;2023-07-13T01:33:01;99227.41;;;22.77;100.00
22653;BME280;11493;43.344;26.226;2023-07-13T01:35:29;99229.81;;;22.75;100.00
22653;BME280;11493;43.344;26.226;2023-07-13T01:37:56;99224.59;;;22.73;100.00
22653;BME280;11493;43.344;26.226;2023-07-13T01:40:23;99224.59;;;22.66;100.00
22653;BME280;11493;43.344;26.226;2023-07-13T01:42:51;99215.38;;;22.58;100.00
22653;BME280;11493;43.344;26.226;2023-07-13T01:45:19;99223.38;;;22.60;100.00
22653;BME280;11493;43.344;26.226;2023-07-13T01:47:47;99222.56;;;22.56;100.00
22653;BME280;11493;43.344;26.226;2023-07-13T01:50:14;99219.34;;;22.50;100.00
22653;BME280;11493;43.344;26.226;2023-07-13T01:52:41;99212.13;;;22.46;100.00
22653;BME280;11493;43.344;26.226;2023-07-13T01:55:08;99203.72;;;22.39;100.00
22653;BME280;11493;43.344;26.226;2023-07-13T01:57:36;99203.69;;;22.35;100.00
22653;BME280;11493;43.344;26.226;2023-07-13T02:00:04;99207.31;;;22.36;100.00
22653;BME280;11493;43.344;26.226;2023-07-13T02:02:41;99214.94;;;22.42;100.00
22653;BME280;11493;43.344;26.226;2023-07-13T02:05:12;99220.94;;;22.41;100.00
22653;BME280;11493;43.344;26.226;2023-07-13T02:07:41;99212.53;;;22.41;100.00
22653;BME280;11493;43.344;26.226;2023-07-13T02:10:09;99234.16;;;22.44;100.00
22653;BME280;11493;43.344;26.226;2023-07-13T02:12:37;99220.13;;;22.44;100.00
22653;BME280;11493;43.344;26.226;2023-07-13T02:15:05;99225.72;;;22.40;100.00
22653;BME280;11493;43.344;26.226;2023-07-13T02:17:34;99224.50;;;22.34;100.00
22653;BME280;11493;43.344;26.226;2023-07-13T02:20:02;99217.69;;;22.32;100.00
22653;BME280;11493;43.344;26.226;2023-07-13T02:22:30;99212.09;;;22.35;100.00
22653;BME280;11493;43.344;26.226;2023-07-13T02:24:58;99220.50;;;22.35;100.00
22653;BME280;11493;43.344;26.226;2023-07-13T02:27:25;99220.91;;;22.34;100.00
22653;BME280;11493;43.344;26.226;2023-07-13T02:29:53;99223.72;;;22.34;100.00
22653;BME280;11493;43.344;26.226;2023-07-13T02:32:21;99235.34;;;22.36;100.00
22653;BME280;11493;43.344;26.226;2023-07-13T02:34:49;99232.53;;;22.32;100.00
22653;BME280;11493;43.344;26.226;2023-07-13T02:37:16;99230.13;;;22.34;100.00
22653;BME280;11493;43.344;26.226;2023-07-13T02:39:43;99240.13;;;22.35;100.00
22653;BME280;11493;43.344;26.226;2023-07-13T02:42:10;99230.13;;;22.30;100.00
22653;BME280;11493;43.344;26.226;2023-07-13T02:44:37;99238.53;;;22.30;100.00
22653;BME280;11493;43.344;26.226;2023-07-13T02:47:04;99222.09;;;22.22;100.00
22653;BME280;11493;43.344;26.226;2023-07-13T02:49:31;99221.69;;;22.16;100.00
22653;BME280;11493;43.344;26.226;2023-07-13T02:51:59;99235.72;;;22.20;100.00
22653;BME280;11493;43.344;26.226;2023-07-13T02:54:26;99235.69;;;22.16;100.00
22653;BME280;11493;43.344;26.226;2023-07-13T02:56:53;99241.31;;;22.23;100.00
22653;BME280;11493;43.344;26.226;2023-07-13T02:59:21;99241.75;;;22.25;100.00
22653;BME280;11493;43.344;26.226;2023-07-13T03:01:48;99248.94;;;22.26;100.00
22653;BME280;11493;43.344;26.226;2023-07-13T03:04:15;99239.72;;;22.22;100.00
22653;BME280;11493;43.344;26.226;2023-07-13T03:06:46;99242.09;;;22.13;100.00
22653;BME280;11493;43.344;26.226;2023-07-13T03:09:14;99239.28;;;22.13;100.00
22653;BME280;11493;43.344;26.226;2023-07-13T03:11:47;99246.91;;;22.20;100.00
22653;BME280;11493;43.344;26.226;2023-07-13T03:14:22;99245.72;;;22.17;100.00
22653;BME280;11493;43.344;26.226;2023-07-13T03:16:50;99244.53;;;22.22;100.00
22653;BME280;11493;43.344;26.226;2023-07-13T03:19:21;99246.16;;;22.26;100.00
22653;BME280;11493;43.344;26.226;2023-07-13T03:21:50;99243.72;;;22.32;100.00
22653;BME280;11493;43.344;26.226;2023-07-13T03:24:17;99250.94;;;22.33;100.00
22653;BME280;11493;43.344;26.226;2023-07-13T03:26:44;99243.75;;;22.36;100.00
22653;BME280;11493;43.344;26.226;2023-07-13T03:29:11;99253.75;;;22.37;100.00
22653;BME280;11493;43.344;26.226;2023-07-13T03:31:39;99257.34;;;22.34;100.00
22653;BME280;11493;43.344;26.226;2023-07-13T03:34:07;99248.53;;;22.32;100.00
22653;BME280;11493;43.344;26.226;2023-07-13T03:36:35;99238.13;;;22.32;100.00
22653;BME280;11493;43.344;26.226;2023-07-13T03:39:06;99240.56;;;22.41;100.00
22653;BME280;11493;43.344;26.226;2023-07-13T03:42:05;99241.78;;;22.50;100.00
22653;BME280;11493;43.344;26.226;2023-07-13T03:44:32;99240.19;;;22.53;100.00
22653;BME280;11493;43.344;26.226;2023-07-13T03:47:00;99242.63;;;22.61;100.00
22653;BME280;11493;43.344;26.226;2023-07-13T03:49:28;99247.44;;;22.68;100.00
22653;BME280;11493;43.344;26.226;2023-07-13T03:51:55;99249.06;;;22.76;100.00
22653;BME280;11493;43.344;26.226;2023-07-13T03:54:22;99242.69;;;22.86;100.00
22653;BME280;11493;43.344;26.226;2023-07-13T03:56:49;99243.50;;;22.90;100.00
22653;BME280;11493;43.344;26.226;2023-07-13T03:59:17;99258.34;;;23.02;100.00
22653;BME280;11493;43.344;26.226;2023-07-13T04:01:45;99248.28;;;23.04;100.00
22653;BME280;11493;43.344;26.226;2023-07-13T04:04:12;99243.06;;;23.06;100.00
22653;BME280;11493;43.344;26.226;2023-07-13T04:06:39;99254.28;;;23.17;100.00
22653;BME280;11493;43.344;26.226;2023-07-13T04:09:06;99255.09;;;23.24;100.00
22653;BME280;11493;43.344;26.226;2023-07-13T04:11:34;99248.69;;;23.31;100.00
22653;BME280;11493;43.344;26.226;2023-07-13T04:14:05;99253.50;;;23.31;100.00
22653;BME280;11493;43.344;26.226;2023-07-13T04:16:33;99252.69;;;23.41;100.00
22653;BME280;11493;43.344;26.226;2023-07-13T04:19:01;99257.88;;;23.53;100.00
22653;BME280;11493;43.344;26.226;2023-07-13T04:21:29;99257.09;;;23.63;100.00
22653;BME280;11493;43.344;26.226;2023-07-13T04:23:57;99258.69;;;23.71;100.00
22653;BME280;11493;43.344;26.226;2023-07-13T04:26:25;99256.63;;;23.79;100.00
22653;BME280;11493;43.344;26.226;2023-07-13T04:28:52;99265.84;;;23.90;100.00
22653;BME280;11493;43.344;26.226;2023-07-13T04:31:20;99260.59;;;23.99;100.00
22653;BME280;11493;43.344;26.226;2023-07-13T04:33:48;99262.56;;;24.09;100.00
22653;BME280;11493;43.344;26.226;2023-07-13T04:36:16;99266.13;;;24.24;100.00
22653;BME280;11493;43.344;26.226;2023-07-13T04:38:43;99268.91;;;24.38;100.00
22653;BME280;11493;43.344;26.226;2023-07-13T04:41:12;99259.63;;;24.45;100.00
22653;BME280;11493;43.344;26.226;2023-07-13T04:43:39;99263.97;;;24.53;100.00
22653;BME280;11493;43.344;26.226;2023-07-13T04:46:15;99263.13;;;24.63;100.00
22653;BME280;11493;43.344;26.226;2023-07-13T04:48:44;99265.03;;;24.77;100.00
22653;BME280;11493;43.344;26.226;2023-07-13T04:51:11;99269.78;;;24.90;100.00
22653;BME280;11493;43.344;26.226;2023-07-13T04:53:38;99262.84;;;25.09;100.00
22653;BME280;11493;43.344;26.226;2023-07-13T04:56:06;99266.75;;;25.23;100.00
22653;BME280;11493;43.344;26.226;2023-07-13T04:58:33;99269.84;;;25.35;100.00
22653;BME280;11493;43.344;26.226;2023-07-13T05:01:04;99272.25;;;25.37;100.00
22653;BME280;11493;43.344;26.226;2023-07-13T05:03:32;99285.44;;;25.47;100.00
22653;BME280;11493;43.344;26.226;2023-07-13T05:06:04;99283.41;;;25.47;100.00
22653;BME280;11493;43.344;26.226;2023-07-13T05:08:32;99300.19;;;25.62;100.00
22653;BME280;11493;43.344;26.226;2023-07-13T05:11:00;99285.25;;;25.68;100.00
22653;BME280;11493;43.344;26.226;2023-07-13T05:13:27;99284.34;;;25.78;100.00
22653;BME280;11493;43.344;26.226;2023-07-13T05:15:58;99289.88;;;25.89;100.00
22653;BME280;11493;43.344;26.226;2023-07-13T05:18:26;99281.34;;;25.96;100.00
22653;BME280;11493;43.344;26.226;2023-07-13T05:21:07;99284.44;;;26.05;100.00
22653;BME280;11493;43.344;26.226;2023-07-13T05:23:36;99282.34;;;26.13;100.00
22653;BME280;11493;43.344;26.226;2023-07-13T05:26:04;99279.41;;;26.24;100.00
22653;BME280;11493;43.344;26.226;2023-07-13T05:28:36;99292.13;;;26.39;100.00
22653;BME280;11493;43.344;26.226;2023-07-13T05:31:04;99293.56;;;26.54;99.66
22653;BME280;11493;43.344;26.226;2023-07-13T05:33:32;99289.88;;;26.57;99.39
22653;BME280;11493;43.344;26.226;2023-07-13T05:35:59;99296.13;;;26.72;98.58
22653;BME280;11493;43.344;26.226;2023-07-13T05:38:28;99298.34;;;26.84;98.55
22653;BME280;11493;43.344;26.226;2023-07-13T05:40:56;99296.22;;;26.92;98.07
22653;BME280;11493;43.344;26.226;2023-07-13T05:43:24;99281.66;;;26.97;96.52
22653;BME280;11493;43.344;26.226;2023-07-13T05:45:53;99298.28;;;27.18;95.40
22653;BME280;11493;43.344;26.226;2023-07-13T05:48:20;99295.22;;;27.32;95.69
22653;BME280;11493;43.344;26.226;2023-07-13T05:50:48;99299.16;;;27.38;95.56
22653;BME280;11493;43.344;26.226;2023-07-13T05:53:16;99293.28;;;27.49;95.57
22653;BME280;11493;43.344;26.226;2023-07-13T05:55:46;99288.28;;;27.60;94.77
22653;BME280;11493;43.344;26.226;2023-07-13T05:58:17;99302.59;;;27.73;93.70
22653;BME280;11493;43.344;26.226;2023-07-13T06:00:46;99302.53;;;27.76;92.15
22653;BME280;11493;43.344;26.226;2023-07-13T06:03:15;99300.97;;;27.95;91.80
22653;BME280;11493;43.344;26.226;2023-07-13T06:05:42;99305.34;;;28.20;90.61
22653;BME280;11493;43.344;26.226;2023-07-13T06:08:09;99313.28;;;28.28;91.04
22653;BME280;11493;43.344;26.226;2023-07-13T06:10:37;99304.34;;;28.30;90.00
22653;BME280;11493;43.344;26.226;2023-07-13T06:13:04;99307.38;;;28.39;90.05
22653;BME280;11493;43.344;26.226;2023-07-13T06:15:31;99308.75;;;28.51;89.77
22653;BME280;11493;43.344;26.226;2023-07-13T06:17:58;99309.34;;;28.62;89.81
22653;BME280;11493;43.344;26.226;2023-07-13T06:20:26;99304.47;;;28.82;88.07
22653;BME280;11493;43.344;26.226;2023-07-13T06:22:53;99306.97;;;28.96;85.79
22653;BME280;11493;43.344;26.226;2023-07-13T06:25:20;99305.19;;;29.02;85.84
22653;BME280;11493;43.344;26.226;2023-07-13T06:27:47;99314.69;;;29.12;86.01
22653;BME280;11493;43.344;26.226;2023-07-13T06:30:14;99305.47;;;29.24;86.35
22653;BME280;11493;43.344;26.226;2023-07-13T06:32:41;99290.69;;;29.33;85.10
22653;BME280;11493;43.344;26.226;2023-07-13T06:35:08;99303.31;;;29.48;84.17
22653;BME280;11493;43.344;26.226;2023-07-13T06:37:39;99302.69;;;29.57;83.71
22653;BME280;11493;43.344;26.226;2023-07-13T06:40:07;99301.97;;;29.69;84.52
22653;BME280;11493;43.344;26.226;2023-07-13T06:42:34;99295.53;;;29.81;84.14
22653;BME280;11493;43.344;26.226;2023-07-13T06:45:01;99298.88;;;29.92;82.98
22653;BME280;11493;43.344;26.226;2023-07-13T06:47:29;99300.66;;;30.02;82.55
22653;BME280;11493;43.344;26.226;2023-07-13T06:50:00;99304.91;;;30.11;79.58
22653;BME280;11493;43.344;26.226;2023-07-13T06:52:27;99300.97;;;30.21;77.00
22653;BME280;11493;43.344;26.226;2023-07-13T06:54:54;99306.69;;;30.33;76.10
22653;BME280;11493;43.344;26.226;2023-07-13T06:57:21;99302.94;;;30.49;74.21
22653;BME280;11493;43.344;26.226;2023-07-13T06:59:48;99301.88;;;30.59;74.13
22653;BME280;11493;43.344;26.226;2023-07-13T07:02:15;99315.31;;;30.71;71.34
22653;BME280;11493;43.344;26.226;2023-07-13T07:04:42;99299.63;;;30.80;72.16
22653;BME280;11493;43.344;26.226;2023-07-13T07:07:09;99303.41;;;30.89;70.22
22653;BME280;11493;43.344;26.226;2023-07-13T07:09:36;99295.22;;;31.04;68.91
22653;BME280;11493;43.344;26.226;2023-07-13T07:12:03;99305.91;;;31.13;69.35
22653;BME280;11493;43.344;26.226;2023-07-13T07:14:31;99298.88;;;31.17;67.68
22653;BME280;11493;43.344;26.226;2023-07-13T07:16:59;99296.00;;;31.30;68.18
22653;BME280;11493;43.344;26.226;2023-07-13T07:19:30;99296.09;;;31.39;67.71
22653;BME280;11493;43.344;26.226;2023-07-13T07:21:57;99294.16;;;31.49;66.66
22653;BME280;11493;43.344;26.226;2023-07-13T07:24:25;99295.38;;;31.60;66.44
22653;BME280;11493;43.344;26.226;2023-07-13T07:26:52;99294.25;;;31.71;66.73
22653;BME280;11493;43.344;26.226;2023-07-13T07:29:22;99287.19;;;31.75;66.17
22653;BME280;11493;43.344;26.226;2023-07-13T07:31:54;99282.75;;;31.74;64.81
22653;BME280;11493;43.344;26.226;2023-07-13T07:34:24;99294.22;;;31.83;66.41
22653;BME280;11493;43.344;26.226;2023-07-13T07:36:51;99291.91;;;31.91;65.56
22653;BME280;11493;43.344;26.226;2023-07-13T07:39:21;99286.41;;;31.96;65.18
22653;BME280;11493;43.344;26.226;2023-07-13T07:41:48;99286.34;;;32.09;65.01
22653;BME280;11493;43.344;26.226;2023-07-13T07:44:18;99282.00;;;32.17;63.11
22653;BME280;11493;43.344;26.226;2023-07-13T07:46:45;99286.38;;;32.31;64.92
22653;BME280;11493;43.344;26.226;2023-07-13T07:49:13;99292.56;;;32.29;64.74
22653;BME280;11493;43.344;26.226;2023-07-13T07:51:40;99286.13;;;32.38;64.15
22653;BME280;11493;43.344;26.226;2023-07-13T07:54:07;99285.06;;;32.45;63.48
22653;BME280;11493;43.344;26.226;2023-07-13T07:56:39;99287.97;;;32.54;61.87
22653;BME280;11493;43.344;26.226;2023-07-13T07:59:09;99274.84;;;32.56;60.30
22653;BME280;11493;43.344;26.226;2023-07-13T08:01:39;99288.50;;;32.61;60.15
22653;BME280;11493;43.344;26.226;2023-07-13T08:04:26;99291.84;;;32.69;61.26
22653;BME280;11493;43.344;26.226;2023-07-13T08:06:57;99292.16;;;32.71;59.74
22653;BME280;11493;43.344;26.226;2023-07-13T08:09:24;99280.75;;;32.71;58.73
22653;BME280;11493;43.344;26.226;2023-07-13T08:11:51;99294.88;;;32.75;58.86
22653;BME280;11493;43.344;26.226;2023-07-13T08:14:21;99292.16;;;32.71;58.66
22653;BME280;11493;43.344;26.226;2023-07-13T08:16:48;99284.72;;;32.74;57.20
22653;BME280;11493;43.344;26.226;2023-07-13T08:19:16;99286.72;;;32.86;57.09
22653;BME280;11493;43.344;26.226;2023-07-13T08:21:43;99285.66;;;32.92;58.42
22653;BME280;11493;43.344;26.226;2023-07-13T08:24:10;99294.53;;;32.94;58.15
22653;BME280;11493;43.344;26.226;2023-07-13T08:26:37;99284.56;;;32.99;56.91
22653;BME280;11493;43.344;26.226;2023-07-13T08:29:04;99287.47;;;33.08;57.23
22653;BME280;11493;43.344;26.226;2023-07-13T08:31:31;99291.28;;;33.14;55.82
22653;BME280;11493;43.344;26.226;2023-07-13T08:33:59;99291.47;;;33.20;54.28
22653;BME280;11493;43.344;26.226;2023-07-13T08:36:30;99276.38;;;33.10;54.26
22653;BME280;11493;43.344;26.226;2023-07-13T08:38:57;99298.28;;;33.22;54.17
22653;BME280;11493;43.344;26.226;2023-07-13T08:41:25;99300.41;;;33.31;54.87
22653;BME280;11493;43.344;26.226;2023-07-13T08:43:58;99307.47;;;33.17;51.98
22653;BME280;11493;43.344;26.226;2023-07-13T08:46:36;99302.56;;;33.27;52.78
22653;BME280;11493;43.344;26.226;2023-07-13T08:49:15;99310.22;;;33.30;51.60
22653;BME280;11493;43.344;26.226;2023-07-13T08:54:36;99304.09;;;33.41;52.93
22653;BME280;11493;43.344;26.226;2023-07-13T08:57:13;99298.66;;;33.43;53.08
22653;BME280;11493;43.344;26.226;2023-07-13T08:59:41;99301.53;;;33.52;50.61
22653;BME280;11493;43.344;26.226;2023-07-13T09:10:19;99289.03;;;33.58;48.58
22653;BME280;11493;43.344;26.226;2023-07-13T09:15:24;99288.59;;;33.69;50.40
22653;BME280;11493;43.344;26.226;2023-07-13T09:17:55;99277.50;;;33.71;49.03
22653;BME280;11493;43.344;26.226;2023-07-13T09:20:36;99288.59;;;33.78;49.06
22653;BME280;11493;43.344;26.226;2023-07-13T09:23:09;99286.72;;;33.84;49.47
22653;BME280;11493;43.344;26.226;2023-07-13T09:25:39;99284.69;;;33.94;49.41
22653;BME280;11493;43.344;26.226;2023-07-13T09:28:15;99285.94;;;34.02;48.82
22653;BME280;11493;43.344;26.226;2023-07-13T09:30:51;99281.50;;;34.10;48.63
22653;BME280;11493;43.344;26.226;2023-07-13T09:33:21;99268.66;;;34.15;46.12
22653;BME280;11493;43.344;26.226;2023-07-13T09:35:48;99268.00;;;34.11;46.92
22653;BME280;11493;43.344;26.226;2023-07-13T09:38:18;99263.91;;;34.03;46.38
22653;BME280;11493;43.344;26.226;2023-07-13T09:43:28;99261.03;;;34.12;46.50
22653;BME280;11493;43.344;26.226;2023-07-13T09:45:58;99253.91;;;34.16;46.32
22653;BME280;11493;43.344;26.226;2023-07-13T09:48:34;99261.03;;;34.12;46.39
22653;BME280;11493;43.344;26.226;2023-07-13T09:51:13;99267.19;;;34.19;46.41
22653;BME280;11493;43.344;26.226;2023-07-13T09:53:42;99251.47;;;34.24;45.97
22653;BME280;11493;43.344;26.226;2023-07-13T09:56:23;99248.31;;;34.31;45.52
22653;BME280;11493;43.344;26.226;2023-07-13T09:58:50;99252.75;;;34.41;45.69
22653;BME280;11493;43.344;26.226;2023-07-13T10:01:35;99250.03;;;34.28;44.47
22653;BME280;11493;43.344;26.226;2023-07-13T10:04:13;99251.19;;;34.31;44.27
22653;BME280;11493;43.344;26.226;2023-07-13T10:06:41;99254.03;;;34.40;43.76
22653;BME280;11493;43.344;26.226;2023-07-13T10:09:15;99253.38;;;34.45;43.40
22653;BME280;11493;43.344;26.226;2023-07-13T10:11:42;99266.53;;;34.52;43.82
22653;BME280;11493;43.344;26.226;2023-07-13T10:14:20;99260.19;;;34.48;42.33
22653;BME280;11493;43.344;26.226;2023-07-13T10:16:56;99268.91;;;34.53;42.00
22653;BME280;11493;43.344;26.226;2023-07-13T10:19:27;99270.78;;;34.66;42.61
22653;BME280;11493;43.344;26.226;2023-07-13T10:21:58;99268.38;;;34.73;42.72
22653;BME280;11493;43.344;26.226;2023-07-13T10:24:37;99257.25;;;34.75;45.12
22653;BME280;11493;43.344;26.226;2023-07-13T10:27:20;99268.53;;;34.88;43.90
22653;BME280;11493;43.344;26.226;2023-07-13T10:32:34;99251.53;;;34.84;44.80
22653;BME280;11493;43.344;26.226;2023-07-13T10:35:03;99253.50;;;35.02;45.24
22653;BME280;11493;43.344;26.226;2023-07-13T10:37:39;99238.53;;;35.07;44.73
22653;BME280;11493;43.344;26.226;2023-07-13T10:40:13;99239.03;;;35.06;44.43
22653;BME280;11493;43.344;26.226;2023-07-13T10:42:45;99238.53;;;35.07;44.48
22653;BME280;11493;43.344;26.226;2023-07-13T10:45:21;99236.13;;;35.15;44.22
22653;BME280;11493;43.344;26.226;2023-07-13T10:47:51;99235.25;;;35.33;45.40
22653;BME280;11493;43.344;26.226;2023-07-13T10:50:22;99233.69;;;35.22;42.86
22653;BME280;11493;43.344;26.226;2023-07-13T10:52:53;99239.06;;;35.30;42.66
22653;BME280;11493;43.344;26.226;2023-07-13T10:55:38;99249.88;;;35.35;42.42
22653;BME280;11493;43.344;26.226;2023-07-13T10:58:23;99246.34;;;35.40;42.90
22653;BME280;11493;43.344;26.226;2023-07-13T11:01:02;99252.72;;;35.35;42.80
22653;BME280;11493;43.344;26.226;2023-07-13T11:03:31;99252.97;;;35.46;43.40
22653;BME280;11493;43.344;26.226;2023-07-13T11:06:12;99252.00;;;35.49;44.01
22653;BME280;11493;43.344;26.226;2023-07-13T11:13:59;99240.97;;;35.56;43.35
22653;BME280;11493;43.344;26.226;2023-07-13T11:16:59;99250.91;;;35.46;43.43
22653;BME280;11493;43.344;26.226;2023-07-13T11:19:51;99236.34;;;35.59;43.76
22653;BME280;11493;43.344;26.226;2023-07-13T11:28:17;99228.56;;;35.74;44.25
22653;BME280;11493;43.344;26.226;2023-07-13T11:33:27;99216.50;;;35.94;43.92
22653;BME280;11493;43.344;26.226;2023-07-13T11:36:04;99194.19;;;35.98;44.00
22653;BME280;11493;43.344;26.226;2023-07-13T11:38:38;99194.00;;;36.02;42.89
22653;BME280;11493;43.344;26.226;2023-07-13T11:41:29;99193.13;;;36.10;42.52
22653;BME280;11493;43.344;26.226;2023-07-13T11:44:18;99204.78;;;36.07;44.06
22653;BME280;11493;43.344;26.226;2023-07-13T11:46:51;99206.94;;;36.12;43.10
22653;BME280;11493;43.344;26.226;2023-07-13T11:49:24;99195.41;;;36.21;43.38
22653;BME280;11493;43.344;26.226;2023-07-13T11:51:54;99192.84;;;36.23;43.49
22653;BME280;11493;43.344;26.226;2023-07-13T11:54:29;99199.47;;;36.29;42.83
22653;BME280;11493;43.344;26.226;2023-07-13T11:59:44;99192.63;;;36.41;43.14
22653;BME280;11493;43.344;26.226;2023-07-13T12:02:26;99187.44;;;36.40;42.47
22653;BME280;11493;43.344;26.226;2023-07-13T12:04:55;99179.38;;;36.44;42.15
22653;BME280;11493;43.344;26.226;2023-07-13T12:07:22;99180.13;;;36.39;41.75
22653;BME280;11493;43.344;26.226;2023-07-13T12:09:50;99177.53;;;36.26;41.71
22653;BME280;11493;43.344;26.226;2023-07-13T12:12:21;99175.06;;;36.34;41.71
22653;BME280;11493;43.344;26.226;2023-07-13T12:14:52;99176.47;;;36.38;41.00
22653;BME280;11493;43.344;26.226;2023-07-13T12:17:24;99161.50;;;36.49;42.12
22653;BME280;11493;43.344;26.226;2023-07-13T12:19:52;99170.56;;;36.62;40.68
22653;BME280;11493;43.344;26.226;2023-07-13T12:22:20;99159.91;;;36.63;40.48
22653;BME280;11493;43.344;26.226;2023-07-13T12:24:48;99158.44;;;36.52;40.39
22653;BME280;11493;43.344;26.226;2023-07-13T12:27:26;99153.56;;;36.59;40.68
22653;BME280;11493;43.344;26.226;2023-07-13T12:30:00;99148.84;;;36.56;40.67
22653;BME280;11493;43.344;26.226;2023-07-13T12:32:27;99148.72;;;36.65;39.79
22653;BME280;11493;43.344;26.226;2023-07-13T12:35:17;99141.81;;;36.57;39.39
22653;BME280;11493;43.344;26.226;2023-07-13T12:37:49;99131.53;;;36.65;39.58
22653;BME280;11493;43.344;26.226;2023-07-13T12:40:20;99135.25;;;36.71;39.42
22653;BME280;11493;43.344;26.226;2023-07-13T12:42:50;99145.84;;;36.79;40.27
22653;BME280;11493;43.344;26.226;2023-07-13T12:45:25;99136.03;;;36.86;40.15
22653;BME280;11493;43.344;26.226;2023-07-13T12:47:58;99132.75;;;36.93;40.58
22653;BME280;11493;43.344;26.226;2023-07-13T12:50:47;99124.81;;;37.03;39.94
22653;BME280;11493;43.344;26.226;2023-07-13T12:53:17;99118.56;;;37.04;40.26
22653;BME280;11493;43.344;26.226;2023-07-13T12:55:57;99117.50;;;37.02;39.54
22653;BME280;11493;43.344;26.226;2023-07-13T13:01:00;99122.84;;;37.14;40.53
22653;BME280;11493;43.344;26.226;2023-07-13T13:03:31;99124.03;;;37.23;39.92
22653;BME280;11493;43.344;26.226;2023-07-13T13:06:20;99130.25;;;37.21;40.61
22653;BME280;11493;43.344;26.226;2023-07-13T13:08:58;99117.19;;;37.20;40.48
22653;BME280;11493;43.344;26.226;2023-07-13T13:11:28;99128.25;;;37.27;40.94
22653;BME280;11493;43.344;26.226;2023-07-13T13:13:58;99122.44;;;37.22;39.79
22653;BME280;11493;43.344;26.226;2023-07-13T13:16:33;99114.22;;;37.14;40.65
22653;BME280;11493;43.344;26.226;2023-07-13T13:19:17;99114.22;;;37.14;40.69
22653;BME280;11493;43.344;26.226;2023-07-13T13:21:46;99114.41;;;37.26;39.40
22653;BME280;11493;43.344;26.226;2023-07-13T13:24:15;99122.28;;;37.31;40.82
22653;BME280;11493;43.344;26.226;2023-07-13T13:26:44;99113.69;;;37.31;38.95
22653;BME280;11493;43.344;26.226;2023-07-13T13:29:23;99113.97;;;37.33;39.12
22653;BME280;11493;43.344;26.226;2023-07-13T13:31:55;99117.69;;;37.39;39.82
22653;BME280;11493;43.344;26.226;2023-07-13T13:34:23;99122.44;;;37.42;40.72
22653;BME280;11493;43.344;26.226;2023-07-13T13:36:51;99114.03;;;37.38;39.94
22653;BME280;11493;43.344;26.226;2023-07-13T13:39:28;99116.84;;;37.33;40.80
22653;BME280;11493;43.344;26.226;2023-07-13T13:41:56;99125.31;;;37.42;39.54